NCAR-RAP Real-Time Weather Data

Output produced by METARs form (12 May 2021  10:37 UTC)
found at http://weather.rap.ucar.edu/surface/
 
K8D3 120956Z AUTO 17004KT 03/M06 A3033 RMK AO1 SLP272 T00331056
K8D3 120856Z AUTO 16004KT 04/M05 A3033 RMK AO1 SLP274 T00391050 58001
K8D3 120756Z AUTO 21003KT 04/M05 A3033 RMK AO1 SLP273 T00441050
K8D3 120656Z AUTO 00000KT 05/M04 A3034 RMK AO1 SLP275 T00501044
K8D3 120556Z AUTO 20005KT 04/M06 A3033 RMK AO1 SLP276 T00441056 10172 20039 401831017 50001
K8D3 120456Z AUTO 20003KT 07/M06 A3034 RMK AO1 SLP275 T00671056
K8D3 120356Z AUTO 19003KT 08/M04 A3033 RMK AO1 SLP274 T00781044
K8D3 120256Z AUTO 20007KT 09/M04 A3033 RMK AO1 SLP273 T00891039 53010
K8D3 120156Z AUTO 23004KT 13/M05 A3031 RMK AO1 SLP264 T01331050
K8D3 120056Z AUTO 25008KT 16/M06 A3030 RMK AO1 SLP260 T01611061
K8D3 112356Z AUTO 26006KT 17/M08 A3030 RMK AO1 SLP264 T01721078 10183 20150 53001
K8D3 112256Z AUTO 21007KT 17/M06 A3029 RMK AO1 SLP266 T01721056
K8D3 112156Z AUTO 32005KT 18/M05 A3029 RMK AO1 SLP262 T01831050
K8D3 112056Z AUTO 00000KT 17/M05 A3029 RMK AO1 SLP264 T01721050 56015
K8D3 111956Z AUTO 18006KT 17/M06 A3031 RMK AO1 SLP267 T01671056